Time;durP1;ratioP1;P1;durP2;ratioP2;P2;SDS_P1;SDS_P2;PMS_P1;PMS_P2;Temp;Humidity;BMP_temperature;BMP_pressure;BME280_temperature;BME280_humidity;BME280_pressure;Samples;Min_cycle;Max_cycle;Signal;HPM_P1;HPM_P2
2023/09/25 04:01:17;;;;;;;;;;;11.00;99.90;;;;;;5545116;23;20287;-63
2023/09/25 04:03:43;;;;;;;;;;;11.00;99.90;;;;;;4994475;28;20390;-63
2023/09/25 04:06:09;;;;;;;;;;;10.90;99.90;;;;;;4994127;28;19910;-63
2023/09/25 04:08:34;;;;;;;;;;;10.90;99.90;;;;;;4994154;28;20334;-63
2023/09/25 04:11:00;;;;;;;;;;;10.90;99.90;;;;;;4994128;28;19906;-63
2023/09/25 04:13:26;;;;;;;;;;;11.10;99.90;;;;;;4993957;28;20368;-63
2023/09/25 04:15:52;;;;;;;;;;;11.10;99.90;;;;;;4994143;28;19996;-64
2023/09/25 04:18:21;;;;;;;;;;;11.10;99.90;;;;;;4993873;28;19948;-63
2023/09/25 04:20:46;;;;;;;;;;;11.10;99.90;;;;;;4994272;28;20008;-65
2023/09/25 04:23:12;;;;;;;;;;;11.10;99.90;;;;;;4993969;28;19945;-63
2023/09/25 04:25:38;;;;;;;;;;;11.10;99.90;;;;;;4994333;28;19913;-63
2023/09/25 04:28:05;;;;;;;;;;;11.20;99.90;;;;;;4994470;28;19975;-64
2023/09/25 04:30:31;;;;;;;;;;;11.20;99.90;;;;;;4994074;28;19906;-64
2023/09/25 04:32:56;;;;;;;;;;;11.20;99.90;;;;;;4993903;28;19913;-64
2023/09/25 04:35:22;;;;;;;;;;;11.20;99.90;;;;;;4991591;28;20402;-64
2023/09/25 04:37:48;;;;;;;;;;;11.20;99.90;;;;;;4974941;28;19925;-63
2023/09/25 04:40:24;;;;;;;;;;;11.30;99.90;;;;;;4974559;28;19906;-65
2023/09/25 04:42:50;;;;;;;;;;;11.30;99.90;;;;;;4974677;28;20364;-67
2023/09/25 04:45:18;;;;;;;;;;;11.20;99.90;;;;;;4989800;28;19941;-67
2023/09/25 04:47:53;;;;;;;;;;;11.20;99.90;;;;;;4992785;28;19914;-67
2023/09/25 04:50:19;;;;;;;;;;;11.10;99.90;;;;;;4996727;28;19906;-67
2023/09/25 04:52:45;;;;;;;;;;;11.10;99.90;;;;;;4996186;28;19906;-66
2023/09/25 04:55:11;;;;;;;;;;;11.00;99.90;;;;;;4997637;28;19945;-66
2023/09/25 04:57:40;;;;;;;;;;;11.00;99.90;;;;;;4997740;28;19928;-66
2023/09/25 05:00:13;;;;;;;;;;;10.90;99.90;;;;;;4997954;28;19952;-65
2023/09/25 05:02:39;;;;;;;;;;;10.90;99.90;;;;;;4997491;28;19925;-66
2023/09/25 05:05:05;;;;;;;;;;;11.00;99.90;;;;;;4997368;28;20288;-66
2023/09/25 05:07:30;;;;;;;;;;;10.90;99.90;;;;;;4997432;28;20004;-67
2023/09/25 05:09:56;;;;;;;;;;;10.90;99.90;;;;;;4997287;28;20336;-66
2023/09/25 05:12:21;;;;;;;;;;;10.90;99.90;;;;;;4997117;28;19913;-66
2023/09/25 05:14:47;;;;;;;;;;;10.80;99.90;;;;;;4995857;28;19910;-67
2023/09/25 05:17:12;;;;;;;;;;;10.80;99.90;;;;;;4997073;28;19906;-67
2023/09/25 05:19:37;;;;;;;;;;;10.90;99.90;;;;;;4996934;28;19929;-66
2023/09/25 05:22:03;;;;;;;;;;;10.90;99.90;;;;;;4996798;28;20067;-67
2023/09/25 05:24:28;;;;;;;;;;;10.80;99.90;;;;;;4996748;28;19913;-66
2023/09/25 05:26:54;;;;;;;;;;;10.80;99.90;;;;;;4996954;28;19913;-66
2023/09/25 05:29:19;;;;;;;;;;;10.90;99.90;;;;;;4996674;28;19912;-66
2023/09/25 05:31:45;;;;;;;;;;;10.90;99.90;;;;;;4996431;28;19909;-66
2023/09/25 05:34:10;;;;;;;;;;;10.90;99.90;;;;;;4997178;28;19906;-67
2023/09/25 05:36:36;;;;;;;;;;;10.90;99.90;;;;;;4996994;28;20009;-66
2023/09/25 05:39:02;;;;;;;;;;;10.80;99.90;;;;;;4996848;28;19912;-65
2023/09/25 05:41:28;;;;;;;;;;;10.80;99.90;;;;;;4996967;28;19906;-66
2023/09/25 05:43:56;;;;;;;;;;;10.70;99.90;;;;;;4996882;28;19945;-65
2023/09/25 05:46:22;;;;;;;;;;;10.70;99.90;;;;;;4997147;28;19906;-66
2023/09/25 05:48:47;;;;;;;;;;;10.70;99.90;;;;;;4996527;28;19968;-66
2023/09/25 05:51:12;;;;;;;;;;;10.70;99.90;;;;;;4996463;28;19912;-66
2023/09/25 05:53:38;;;;;;;;;;;10.80;99.90;;;;;;4993363;28;20004;-66
2023/09/25 05:56:03;;;;;;;;;;;10.70;99.90;;;;;;4994234;28;19957;-66
2023/09/25 05:58:29;;;;;;;;;;;10.70;99.90;;;;;;4995728;28;19914;-66
2023/09/25 06:00:54;;;;;;;;;;;10.70;99.90;;;;;;4995193;28;19914;-66
2023/09/25 06:03:20;;;;;;;;;;;10.70;99.90;;;;;;4996202;28;19906;-66
2023/09/25 06:05:45;;;;;;;;;;;10.70;99.90;;;;;;4996222;28;20356;-66
2023/09/25 06:08:11;;;;;;;;;;;10.70;99.90;;;;;;4995980;28;19973;-66
2023/09/25 06:10:36;;;;;;;;;;;10.60;99.90;;;;;;4995729;28;19906;-66
2023/09/25 06:13:02;;;;;;;;;;;10.70;99.90;;;;;;4995636;28;19940;-67
2023/09/25 06:15:30;;;;;;;;;;;10.70;99.90;;;;;;4995462;28;19906;-65
2023/09/25 06:17:58;;;;;;;;;;;10.60;99.90;;;;;;4995565;28;19913;-65
2023/09/25 06:20:26;;;;;;;;;;;10.60;99.90;;;;;;4995688;28;19906;-64
2023/09/25 06:22:52;;;;;;;;;;;10.60;99.90;;;;;;4995674;28;20386;-64
2023/09/25 06:25:17;;;;;;;;;;;10.60;99.90;;;;;;4995357;28;19905;-65
2023/09/25 06:27:46;;;;;;;;;;;10.70;99.90;;;;;;4995387;28;20423;-65
2023/09/25 06:30:12;;;;;;;;;;;10.70;99.90;;;;;;4995571;28;20060;-65
2023/09/25 06:32:38;;;;;;;;;;;10.80;99.90;;;;;;4995518;28;19912;-65
2023/09/25 06:35:04;;;;;;;;;;;10.80;99.90;;;;;;4995107;28;19906;-64
2023/09/25 06:37:30;;;;;;;;;;;10.90;99.90;;;;;;4995566;28;19992;-65
2023/09/25 06:39:55;;;;;;;;;;;11.00;99.90;;;;;;4995195;28;19961;-65
2023/09/25 06:42:21;;;;;;;;;;;11.00;99.90;;;;;;4995093;28;19905;-65
2023/09/25 06:44:46;;;;;;;;;;;11.10;99.90;;;;;;4993755;28;20285;-64
2023/09/25 06:47:11;;;;;;;;;;;11.30;99.90;;;;;;4995030;28;19932;-65
2023/09/25 06:49:37;;;;;;;;;;;11.30;99.90;;;;;;4995162;28;19906;-65
2023/09/25 06:52:02;;;;;;;;;;;11.40;99.90;;;;;;4994839;28;19905;-65
2023/09/25 06:54:28;;;;;;;;;;;11.50;99.90;;;;;;4994858;28;19969;-65
2023/09/25 06:56:53;;;;;;;;;;;11.60;99.90;;;;;;4994702;28;19906;-65
2023/09/25 06:59:19;;;;;;;;;;;11.60;99.90;;;;;;4994809;28;20008;-65
2023/09/25 07:01:44;;;;;;;;;;;11.80;99.90;;;;;;4994536;28;19917;-69
2023/09/25 07:04:10;;;;;;;;;;;11.80;99.90;;;;;;4994800;28;19906;-69
2023/09/25 07:06:35;;;;;;;;;;;11.90;99.90;;;;;;4994736;28;19910;-70
2023/09/25 07:09:02;;;;;;;;;;;12.10;99.90;;;;;;4994533;28;19906;-68
2023/09/25 07:11:28;;;;;;;;;;;12.20;99.90;;;;;;4993953;28;19905;-69
2023/09/25 07:13:53;;;;;;;;;;;12.30;99.90;;;;;;4994560;28;19992;-69
2023/09/25 07:16:18;;;;;;;;;;;12.40;99.90;;;;;;4994528;28;19916;-69
2023/09/25 07:18:46;;;;;;;;;;;12.50;99.90;;;;;;4994629;28;19906;-68
2023/09/25 07:21:13;;;;;;;;;;;12.50;99.90;;;;;;4994374;28;19906;-68
2023/09/25 07:23:38;;;;;;;;;;;12.70;99.90;;;;;;4994241;28;19906;-68
2023/09/25 07:26:08;;;;;;;;;;;13.00;99.90;;;;;;4994539;28;19906;-69
2023/09/25 07:28:34;;;;;;;;;;;13.00;99.90;;;;;;4994553;28;20017;-70
2023/09/25 07:31:00;;;;;;;;;;;13.10;99.90;;;;;;4994449;28;19945;-68
2023/09/25 07:33:27;;;;;;;;;;;13.10;99.90;;;;;;4994602;28;19910;-68
2023/09/25 07:35:53;;;;;;;;;;;13.10;99.90;;;;;;4992966;28;20295;-68
2023/09/25 07:38:19;;;;;;;;;;;13.20;99.90;;;;;;4994400;28;19910;-69
2023/09/25 07:40:46;;;;;;;;;;;13.20;99.90;;;;;;4994291;28;19906;-69
2023/09/25 07:43:11;;;;;;;;;;;13.30;99.90;;;;;;4994370;28;19949;-68
2023/09/25 07:45:38;;;;;;;;;;;13.40;99.90;;;;;;4994728;28;19952;-68
2023/09/25 07:48:05;;;;;;;;;;;13.40;99.90;;;;;;4994507;28;20334;-68
2023/09/25 07:50:31;;;;;;;;;;;13.50;99.90;;;;;;4994607;28;19906;-70
2023/09/25 07:52:58;;;;;;;;;;;13.70;99.90;;;;;;4994086;28;19905;-67
2023/09/25 07:55:24;;;;;;;;;;;13.70;99.90;;;;;;4992908;28;19906;-68
2023/09/25 07:57:50;;;;;;;;;;;13.80;99.90;;;;;;4994151;28;19913;-68
2023/09/25 08:02:52;;;;;;;;;;;14.10;99.90;;;;;;4994065;28;20023;-69
2023/09/25 08:05:18;;;;;;;;;;;14.10;99.90;;;;;;4994559;28;19992;-68
2023/09/25 08:07:45;;;;;;;;;;;14.30;99.90;;;;;;4992777;28;19948;-68
2023/09/25 08:10:11;;;;;;;;;;;14.40;99.90;;;;;;4993962;28;20001;-69
2023/09/25 08:12:36;;;;;;;;;;;14.40;99.90;;;;;;4992873;28;19912;-68
2023/09/25 08:15:02;;;;;;;;;;;14.40;99.90;;;;;;4994049;28;19905;-69
2023/09/25 08:17:27;;;;;;;;;;;14.60;99.90;;;;;;4994579;28;19997;-68
2023/09/25 08:19:53;;;;;;;;;;;14.60;99.90;;;;;;4993948;28;20363;-68
2023/09/25 08:22:18;;;;;;;;;;;14.60;99.90;;;;;;4994304;28;20339;-68
2023/09/25 08:24:44;;;;;;;;;;;14.70;99.90;;;;;;4997792;28;20331;-68
2023/09/25 08:27:09;;;;;;;;;;;14.70;99.90;;;;;;4996641;28;20335;-68
2023/09/25 08:29:35;;;;;;;;;;;14.80;99.90;;;;;;4998039;28;19913;-68
2023/09/25 08:32:01;;;;;;;;;;;14.90;99.90;;;;;;4997473;28;19959;-69
2023/09/25 08:34:26;;;;;;;;;;;15.00;99.90;;;;;;4997561;28;19905;-68
2023/09/25 08:36:52;;;;;;;;;;;15.20;99.90;;;;;;4997434;28;19906;-69
2023/09/25 08:39:17;;;;;;;;;;;15.20;99.90;;;;;;4997161;28;19906;-68
2023/09/25 08:41:43;;;;;;;;;;;15.40;99.90;;;;;;4997077;28;19906;-68
2023/09/25 08:44:09;;;;;;;;;;;15.50;99.90;;;;;;4997019;28;19917;-68
2023/09/25 08:46:34;;;;;;;;;;;15.60;99.90;;;;;;4997343;28;19909;-68
2023/09/25 08:49:01;;;;;;;;;;;15.80;99.90;;;;;;4997017;28;19906;-68
2023/09/25 08:51:31;;;;;;;;;;;15.80;99.90;;;;;;4995713;28;20363;-67
2023/09/25 08:53:56;;;;;;;;;;;16.10;99.90;;;;;;4995315;28;20390;-67
2023/09/25 08:56:22;;;;;;;;;;;16.50;99.90;;;;;;4997404;28;19993;-68
2023/09/25 08:58:49;;;;;;;;;;;18.80;99.30;;;;;;4997131;28;20438;-68
2023/09/25 09:01:15;;;;;;;;;;;21.60;95.00;;;;;;4996743;28;20291;-69
2023/09/25 09:03:40;;;;;;;;;;;24.40;91.10;;;;;;4996653;28;20000;-68
2023/09/25 09:06:06;;;;;;;;;;;27.00;83.30;;;;;;4997193;28;19948;-68
2023/09/25 09:08:31;;;;;;;;;;;28.50;79.40;;;;;;4996626;28;19910;-68
2023/09/25 09:10:56;;;;;;;;;;;29.80;73.10;;;;;;4996357;28;19906;-70
2023/09/25 09:13:22;;;;;;;;;;;31.00;70.60;;;;;;4996597;28;20379;-69
2023/09/25 09:15:49;;;;;;;;;;;31.70;66.90;;;;;;4996656;28;20399;-68
2023/09/25 09:18:20;;;;;;;;;;;31.20;65.10;;;;;;4996313;28;19956;-69
2023/09/25 09:20:45;;;;;;;;;;;30.80;64.70;;;;;;4996499;28;19906;-68
2023/09/25 09:23:11;;;;;;;;;;;29.90;66.30;;;;;;4996295;28;19905;-69
2023/09/25 09:25:36;;;;;;;;;;;29.50;65.80;;;;;;4996293;28;19906;-68
2023/09/25 09:28:08;;;;;;;;;;;30.20;65.80;;;;;;4996203;28;19910;-67
2023/09/25 09:30:36;;;;;;;;;;;30.20;66.20;;;;;;4996250;28;19916;-68
2023/09/25 09:33:02;;;;;;;;;;;30.30;65.20;;;;;;4996403;28;20275;-68
2023/09/25 09:35:27;;;;;;;;;;;30.20;64.90;;;;;;4995517;28;19906;-69
2023/09/25 09:37:54;;;;;;;;;;;28.60;66.10;;;;;;4999637;28;19984;-68
2023/09/25 09:40:24;;;;;;;;;;;27.10;68.30;;;;;;4998021;28;20421;-68
2023/09/25 09:42:50;;;;;;;;;;;25.80;71.20;;;;;;4996159;28;19949;-68
2023/09/25 09:45:16;;;;;;;;;;;25.20;72.50;;;;;;4995970;28;20020;-69
2023/09/25 09:47:43;;;;;;;;;;;25.60;73.10;;;;;;4995972;28;20105;-69
2023/09/25 09:50:11;;;;;;;;;;;27.10;71.80;;;;;;4995755;28;19913;-68
2023/09/25 09:52:39;;;;;;;;;;;29.20;69.20;;;;;;4995836;28;20275;-68
2023/09/25 09:55:10;;;;;;;;;;;31.60;64.90;;;;;;4995744;28;20361;-68
2023/09/25 09:57:36;;;;;;;;;;;33.10;62.40;;;;;;4994746;28;20407;-68
2023/09/25 10:00:05;;;;;;;;;;;33.80;60.70;;;;;;4995071;28;19960;-68
2023/09/25 10:02:30;;;;;;;;;;;34.30;59.50;;;;;;4995835;28;19921;-68
2023/09/25 10:04:56;;;;;;;;;;;33.70;59.40;;;;;;4996490;28;19905;-68
2023/09/25 10:07:22;;;;;;;;;;;33.60;58.70;;;;;;4995439;28;19932;-68
2023/09/25 10:09:57;;;;;;;;;;;33.90;58.60;;;;;;4994127;28;19909;-69
2023/09/25 10:12:38;;;;;;;;;;;34.70;58.40;;;;;;4995194;28;19945;-69
2023/09/25 10:15:08;;;;;;;;;;;33.10;58.40;;;;;;4994342;28;19912;-65
2023/09/25 10:17:41;;;;;;;;;;;34.00;58.20;;;;;;4995435;28;19906;-65
2023/09/25 10:20:26;;;;;;;;;;;35.30;57.30;;;;;;4995624;28;19913;-66
2023/09/25 10:22:51;;;;;;;;;;;34.40;56.60;;;;;;4995786;28;19996;-66
2023/09/25 10:25:17;;;;;;;;;;;33.30;58.50;;;;;;4995178;28;20337;-65
2023/09/25 10:27:43;;;;;;;;;;;34.90;57.90;;;;;;4995164;28;20340;-66
2023/09/25 10:30:17;;;;;;;;;;;35.80;56.70;;;;;;4995212;28;20391;-65
2023/09/25 10:32:49;;;;;;;;;;;36.60;55.60;;;;;;4995570;28;19901;-65
2023/09/25 10:35:33;;;;;;;;;;;36.90;54.60;;;;;;4995161;28;20375;-65
2023/09/25 10:38:08;;;;;;;;;;;35.70;54.60;;;;;;4994917;28;19905;-65
2023/09/25 10:40:35;;;;;;;;;;;35.80;55.10;;;;;;4994915;28;19905;-66
2023/09/25 10:43:01;;;;;;;;;;;36.00;54.70;;;;;;4995178;28;19956;-66
2023/09/25 10:45:26;;;;;;;;;;;36.70;54.50;;;;;;4995027;28;19913;-66
2023/09/25 10:47:52;;;;;;;;;;;36.90;54.20;;;;;;4993856;28;19916;-65
2023/09/25 10:50:17;;;;;;;;;;;37.30;54.00;;;;;;4994716;28;19913;-66
2023/09/25 10:52:42;;;;;;;;;;;36.70;53.70;;;;;;4994847;28;19906;-66
2023/09/25 10:55:08;;;;;;;;;;;36.00;54.00;;;;;;4994616;28;19968;-66
2023/09/25 10:57:33;;;;;;;;;;;35.50;54.10;;;;;;4994891;28;19953;-65
2023/09/25 11:00:08;;;;;;;;;;;34.60;54.80;;;;;;4994451;28;19958;-65
2023/09/25 11:02:34;;;;;;;;;;;32.00;56.20;;;;;;4995055;28;19914;-65
2023/09/25 11:05:02;;;;;;;;;;;28.90;59.30;;;;;;4994895;28;19906;-65
2023/09/25 11:07:28;;;;;;;;;;;26.80;61.70;;;;;;4993177;28;19910;-65
2023/09/25 11:09:53;;;;;;;;;;;25.60;64.20;;;;;;4993380;28;19912;-66
2023/09/25 11:12:19;;;;;;;;;;;24.70;65.80;;;;;;4994361;28;19917;-66
2023/09/25 11:14:45;;;;;;;;;;;24.30;67.80;;;;;;4994421;28;19912;-66
2023/09/25 11:17:10;;;;;;;;;;;23.90;69.70;;;;;;4994294;28;20313;-66
2023/09/25 11:19:35;;;;;;;;;;;23.50;71.10;;;;;;4994455;28;19909;-66
2023/09/25 11:22:02;;;;;;;;;;;23.20;72.00;;;;;;4994692;28;20386;-66
2023/09/25 11:24:28;;;;;;;;;;;23.00;73.00;;;;;;4994276;28;19997;-67
2023/09/25 11:26:54;;;;;;;;;;;22.90;73.40;;;;;;4994840;28;20348;-65
2023/09/25 11:29:19;;;;;;;;;;;22.70;73.70;;;;;;4994320;28;19933;-64
2023/09/25 11:31:45;;;;;;;;;;;22.50;74.50;;;;;;4994103;28;19906;-66
2023/09/25 11:34:10;;;;;;;;;;;22.20;74.50;;;;;;4994239;28;19906;-67
2023/09/25 11:36:45;;;;;;;;;;;22.10;74.50;;;;;;4994335;28;19993;-65
2023/09/25 11:39:16;;;;;;;;;;;22.00;75.10;;;;;;4993968;28;20318;-64
2023/09/25 11:41:42;;;;;;;;;;;21.80;75.70;;;;;;4994140;28;20438;-64
2023/09/25 11:44:09;;;;;;;;;;;21.70;76.00;;;;;;4994093;28;19910;-65
2023/09/25 11:46:34;;;;;;;;;;;21.60;76.50;;;;;;4993962;28;19905;-65
2023/09/25 11:49:00;;;;;;;;;;;21.50;76.20;;;;;;4993715;28;19906;-64
2023/09/25 11:51:26;;;;;;;;;;;21.40;77.20;;;;;;4994087;28;19905;-64
2023/09/25 11:53:52;;;;;;;;;;;21.40;77.10;;;;;;4993824;28;19906;-63
2023/09/25 11:56:18;;;;;;;;;;;21.40;78.10;;;;;;4993919;28;19906;-63
2023/09/25 11:58:43;;;;;;;;;;;21.30;78.20;;;;;;4995684;28;20335;-65
2023/09/25 12:01:08;;;;;;;;;;;21.40;78.50;;;;;;4997678;28;20364;-65
2023/09/25 12:03:38;;;;;;;;;;;21.30;78.80;;;;;;4997782;28;20296;-65
2023/09/25 12:06:07;;;;;;;;;;;21.50;78.10;;;;;;4997772;28;19906;-64
2023/09/25 12:08:33;;;;;;;;;;;21.40;77.50;;;;;;4996227;28;19910;-65
2023/09/25 12:10:59;;;;;;;;;;;21.40;78.20;;;;;;4997705;28;20309;-65
2023/09/25 12:13:24;;;;;;;;;;;21.50;77.90;;;;;;4997594;28;19906;-65
2023/09/25 12:15:50;;;;;;;;;;;21.60;78.60;;;;;;4997736;28;19988;-66
2023/09/25 12:18:15;;;;;;;;;;;21.60;78.30;;;;;;4997484;28;20045;-66
2023/09/25 12:20:41;;;;;;;;;;;21.60;78.80;;;;;;4997688;28;19906;-64
2023/09/25 12:23:07;;;;;;;;;;;21.70;78.60;;;;;;4997542;28;19906;-65
2023/09/25 12:25:33;;;;;;;;;;;21.80;78.40;;;;;;4997464;28;19913;-65
2023/09/25 12:27:59;;;;;;;;;;;21.80;79.20;;;;;;4997651;28;19945;-65
2023/09/25 12:30:24;;;;;;;;;;;21.90;79.00;;;;;;4999001;28;19906;-65
2023/09/25 12:32:50;;;;;;;;;;;21.90;79.20;;;;;;5000454;28;19906;-66
2023/09/25 12:35:16;;;;;;;;;;;22.00;78.40;;;;;;5000767;28;19917;-64
2023/09/25 12:37:49;;;;;;;;;;;21.90;78.50;;;;;;4999831;28;19906;-65
2023/09/25 12:40:18;;;;;;;;;;;21.90;77.90;;;;;;4998618;28;19913;-66
2023/09/25 12:42:46;;;;;;;;;;;21.90;78.30;;;;;;4997261;28;19912;-65
2023/09/25 12:45:12;;;;;;;;;;;21.90;78.50;;;;;;4997036;28;19906;-65
2023/09/25 12:47:38;;;;;;;;;;;21.90;78.50;;;;;;4996958;28;20056;-65
2023/09/25 12:50:03;;;;;;;;;;;21.90;78.90;;;;;;4996842;28;20386;-64
2023/09/25 12:52:31;;;;;;;;;;;22.00;78.50;;;;;;4995532;28;19910;-64
2023/09/25 12:54:56;;;;;;;;;;;22.00;78.90;;;;;;4995475;28;19905;-64
2023/09/25 12:57:22;;;;;;;;;;;22.10;78.90;;;;;;4996428;28;19941;-64
2023/09/25 12:59:47;;;;;;;;;;;22.10;78.60;;;;;;4996406;28;20005;-65
2023/09/25 13:02:13;;;;;;;;;;;22.20;79.20;;;;;;4996505;28;19913;-65
2023/09/25 13:04:38;;;;;;;;;;;22.20;78.60;;;;;;4996614;28;20388;-65
2023/09/25 13:07:04;;;;;;;;;;;22.20;78.70;;;;;;4996721;28;20390;-67
2023/09/25 13:09:29;;;;;;;;;;;22.20;79.00;;;;;;4995811;28;19953;-65
2023/09/25 13:11:55;;;;;;;;;;;22.30;79.10;;;;;;4996548;28;19912;-65
2023/09/25 13:14:20;;;;;;;;;;;22.30;79.10;;;;;;4996571;28;19906;-64
2023/09/25 13:16:46;;;;;;;;;;;22.30;79.30;;;;;;4996478;28;19988;-65
2023/09/25 13:19:11;;;;;;;;;;;22.20;79.70;;;;;;4996494;28;20394;-65
2023/09/25 13:21:37;;;;;;;;;;;22.30;79.40;;;;;;4996241;28;19909;-66
2023/09/25 13:24:02;;;;;;;;;;;22.30;79.70;;;;;;4996356;28;19906;-64
2023/09/25 13:26:28;;;;;;;;;;;22.40;79.30;;;;;;4996427;28;20260;-66
2023/09/25 13:28:54;;;;;;;;;;;22.30;79.30;;;;;;4996462;28;20000;-66
2023/09/25 13:31:21;;;;;;;;;;;22.40;79.40;;;;;;4996208;28;20374;-65
2023/09/25 13:33:46;;;;;;;;;;;22.40;79.00;;;;;;4996540;28;19906;-66
2023/09/25 13:36:15;;;;;;;;;;;22.50;78.80;;;;;;4996165;28;19913;-66
2023/09/25 13:38:41;;;;;;;;;;;22.40;78.80;;;;;;4996191;28;19906;-65
2023/09/25 13:41:07;;;;;;;;;;;22.30;79.60;;;;;;4996217;28;19929;-65
2023/09/25 13:43:33;;;;;;;;;;;22.50;78.80;;;;;;4996390;28;20360;-64
2023/09/25 13:45:58;;;;;;;;;;;22.50;78.10;;;;;;4996667;28;20000;-66
2023/09/25 13:48:25;;;;;;;;;;;22.50;78.10;;;;;;4996426;28;20431;-64
2023/09/25 13:50:51;;;;;;;;;;;22.50;78.70;;;;;;4996005;28;19992;-66
2023/09/25 13:53:16;;;;;;;;;;;22.50;79.10;;;;;;4996003;28;19957;-65
2023/09/25 13:55:44;;;;;;;;;;;22.50;78.10;;;;;;4995839;28;19905;-64
2023/09/25 13:58:10;;;;;;;;;;;22.50;78.10;;;;;;4995724;28;19956;-66
2023/09/25 14:00:35;;;;;;;;;;;22.50;78.30;;;;;;4995372;28;19914;-67
2023/09/25 14:03:00;;;;;;;;;;;22.50;77.60;;;;;;4995665;28;19906;-66
2023/09/25 14:05:26;;;;;;;;;;;22.70;77.80;;;;;;4996222;28;19906;-65
2023/09/25 14:07:51;;;;;;;;;;;23.00;76.90;;;;;;4996131;28;20311;-65
2023/09/25 14:10:17;;;;;;;;;;;23.40;76.70;;;;;;4997096;28;19937;-64
2023/09/25 14:12:44;;;;;;;;;;;23.40;76.20;;;;;;4996717;28;19928;-69
2023/09/25 14:15:12;;;;;;;;;;;23.30;76.10;;;;;;4996827;28;20378;-67
2023/09/25 14:17:40;;;;;;;;;;;23.20;76.50;;;;;;4995869;28;19913;-65
2023/09/25 14:20:07;;;;;;;;;;;23.10;76.70;;;;;;4995475;28;19906;-64
2023/09/25 14:22:32;;;;;;;;;;;22.90;77.10;;;;;;4995401;28;20347;-65
2023/09/25 14:24:59;;;;;;;;;;;22.70;77.60;;;;;;4996346;28;19905;-64
2023/09/25 14:27:25;;;;;;;;;;;22.70;77.70;;;;;;4995350;28;20371;-64
2023/09/25 14:29:50;;;;;;;;;;;22.60;77.80;;;;;;4994279;28;19906;-66
2023/09/25 14:32:17;;;;;;;;;;;22.60;78.00;;;;;;4995624;28;19993;-65
2023/09/25 14:34:43;;;;;;;;;;;22.60;78.20;;;;;;4995352;28;19957;-67
2023/09/25 14:37:08;;;;;;;;;;;22.60;78.80;;;;;;4995041;28;19956;-65
2023/09/25 14:39:34;;;;;;;;;;;22.60;78.50;;;;;;4995100;28;20336;-67
2023/09/25 14:41:59;;;;;;;;;;;22.60;78.90;;;;;;4995179;28;20296;-65
2023/09/25 14:44:25;;;;;;;;;;;22.50;78.90;;;;;;4995438;28;19910;-63
2023/09/25 14:46:52;;;;;;;;;;;22.50;79.00;;;;;;4995469;28;20363;-65
2023/09/25 14:49:18;;;;;;;;;;;22.50;78.90;;;;;;4984524;28;19982;-65
2023/09/25 14:51:43;;;;;;;;;;;22.40;79.20;;;;;;4975296;28;20000;-63
2023/09/25 14:54:09;;;;;;;;;;;22.50;79.10;;;;;;4975441;28;19917;-67
2023/09/25 14:56:34;;;;;;;;;;;22.30;79.70;;;;;;4973902;28;20365;-65
2023/09/25 14:58:59;;;;;;;;;;;22.30;79.70;;;;;;4975523;28;20278;-69
2023/09/25 15:01:25;;;;;;;;;;;22.30;80.00;;;;;;4973610;28;19922;-68
2023/09/25 15:03:50;;;;;;;;;;;22.20;80.20;;;;;;4973900;28;19906;-69
2023/09/25 15:06:16;;;;;;;;;;;22.20;80.00;;;;;;4975285;28;19906;-69
2023/09/25 15:08:41;;;;;;;;;;;22.30;80.10;;;;;;4980603;28;20012;-69
2023/09/25 15:11:07;;;;;;;;;;;22.30;80.30;;;;;;4987560;28;19905;-69
2023/09/25 15:13:32;;;;;;;;;;;22.30;80.20;;;;;;4991935;28;19957;-67
2023/09/25 15:15:58;;;;;;;;;;;22.30;80.30;;;;;;4994314;28;19945;-67
2023/09/25 15:18:23;;;;;;;;;;;22.20;80.30;;;;;;4994445;28;19906;-67
2023/09/25 15:20:49;;;;;;;;;;;22.20;80.40;;;;;;4994284;28;20316;-68
2023/09/25 15:23:14;;;;;;;;;;;22.10;81.10;;;;;;4994570;28;20319;-68
2023/09/25 15:25:39;;;;;;;;;;;22.10;80.70;;;;;;4994686;28;19956;-67
2023/09/25 15:28:05;;;;;;;;;;;22.10;80.50;;;;;;4994668;28;20444;-67
2023/09/25 15:30:31;;;;;;;;;;;22.10;80.70;;;;;;4994809;28;19905;-67
2023/09/25 15:32:56;;;;;;;;;;;22.10;80.50;;;;;;4994144;28;20356;-66
2023/09/25 15:35:22;;;;;;;;;;;22.10;80.60;;;;;;4994332;28;20280;-65
2023/09/25 15:37:47;;;;;;;;;;;22.00;80.70;;;;;;4994491;28;20272;-66
2023/09/25 15:40:16;;;;;;;;;;;22.10;80.50;;;;;;4994414;28;19906;-66
2023/09/25 15:42:41;;;;;;;;;;;22.00;80.80;;;;;;4994821;28;19917;-64
2023/09/25 15:45:07;;;;;;;;;;;22.00;80.50;;;;;;4994295;28;19905;-66
2023/09/25 15:47:32;;;;;;;;;;;21.90;80.60;;;;;;4994769;28;19910;-65
2023/09/25 15:49:58;;;;;;;;;;;21.90;80.50;;;;;;4994270;28;19909;-66
2023/09/25 15:52:23;;;;;;;;;;;21.90;80.60;;;;;;4994047;28;19945;-65
2023/09/25 15:54:49;;;;;;;;;;;21.90;81.00;;;;;;4994054;28;19956;-65
2023/09/25 15:57:14;;;;;;;;;;;21.80;80.70;;;;;;4993744;28;19906;-68
2023/09/25 15:59:40;;;;;;;;;;;21.90;80.70;;;;;;4993881;28;20329;-69
2023/09/25 16:02:09;;;;;;;;;;;21.90;80.40;;;;;;4994063;28;19918;-68
2023/09/25 16:04:35;;;;;;;;;;;21.90;80.50;;;;;;4993814;28;19906;-68
2023/09/25 16:07:04;;;;;;;;;;;21.90;80.80;;;;;;4993683;28;19932;-69
2023/09/25 16:09:30;;;;;;;;;;;21.80;80.60;;;;;;4994399;28;20388;-67
2023/09/25 16:11:55;;;;;;;;;;;21.80;80.90;;;;;;4994856;28;19912;-67
2023/09/25 16:14:21;;;;;;;;;;;21.70;81.10;;;;;;4994152;28;19906;-68
2023/09/25 16:16:46;;;;;;;;;;;21.70;81.40;;;;;;5002519;23;20330;-68
2023/09/25 16:19:12;;;;;;;;;;;21.70;81.00;;;;;;4974686;28;19989;-67
2023/09/25 16:21:37;;;;;;;;;;;21.60;81.20;;;;;;4975332;28;20264;-68
2023/09/25 16:24:03;;;;;;;;;;;21.60;81.40;;;;;;4974721;28;20447;-69
2023/09/25 16:26:28;;;;;;;;;;;21.60;81.70;;;;;;4974810;28;20300;-69
2023/09/25 16:28:54;;;;;;;;;;;21.50;82.10;;;;;;4974546;28;19953;-66
2023/09/25 16:31:19;;;;;;;;;;;21.50;82.30;;;;;;4973933;28;19906;-68
2023/09/25 16:33:45;;;;;;;;;;;21.40;83.00;;;;;;4972897;28;20308;-68
2023/09/25 16:36:11;;;;;;;;;;;21.40;83.20;;;;;;4974522;28;19929;-64
2023/09/25 16:38:37;;;;;;;;;;;21.40;83.80;;;;;;4975703;28;19906;-65
2023/09/25 16:41:03;;;;;;;;;;;21.40;84.50;;;;;;4973936;28;20384;-68
2023/09/25 16:43:29;;;;;;;;;;;21.40;85.10;;;;;;4974286;28;19921;-68
2023/09/25 16:45:54;;;;;;;;;;;21.30;85.40;;;;;;4976512;28;19906;-67
2023/09/25 16:48:20;;;;;;;;;;;21.20;86.00;;;;;;4976647;28;20384;-67
2023/09/25 16:50:45;;;;;;;;;;;21.10;86.50;;;;;;4977969;28;19906;-68
2023/09/25 16:53:10;;;;;;;;;;;21.10;86.90;;;;;;4972473;28;19910;-68
2023/09/25 16:55:37;;;;;;;;;;;21.00;87.50;;;;;;4960134;28;19946;-67
2023/09/25 16:58:04;;;;;;;;;;;20.90;87.90;;;;;;4958406;28;19976;-68
2023/09/25 17:00:30;;;;;;;;;;;20.90;88.20;;;;;;4958445;29;19950;-66
2023/09/25 17:02:55;;;;;;;;;;;20.80;88.70;;;;;;4958042;28;19907;-67
2023/09/25 17:05:21;;;;;;;;;;;20.70;89.10;;;;;;4957900;28;19938;-68
2023/09/25 17:07:46;;;;;;;;;;;20.60;89.80;;;;;;4957837;29;19910;-67
2023/09/25 17:10:12;;;;;;;;;;;20.60;89.80;;;;;;4958007;29;19913;-69
2023/09/25 17:12:37;;;;;;;;;;;20.50;90.20;;;;;;4973543;28;19914;-67
2023/09/25 17:15:03;;;;;;;;;;;20.50;90.30;;;;;;4977046;28;20361;-68
2023/09/25 17:17:29;;;;;;;;;;;20.40;90.50;;;;;;4976465;28;19914;-68
2023/09/25 17:19:54;;;;;;;;;;;20.30;90.60;;;;;;4978390;28;20368;-67
2023/09/25 17:22:20;;;;;;;;;;;20.20;90.90;;;;;;4978861;28;19906;-66
2023/09/25 17:24:46;;;;;;;;;;;20.10;91.10;;;;;;4977836;28;19906;-66
2023/09/25 17:27:16;;;;;;;;;;;20.00;91.40;;;;;;4976828;28;20308;-68
2023/09/25 17:29:41;;;;;;;;;;;19.90;91.40;;;;;;4975597;28;20256;-67
2023/09/25 17:32:07;;;;;;;;;;;19.80;91.70;;;;;;4977024;28;19957;-68
2023/09/25 17:34:32;;;;;;;;;;;19.80;91.80;;;;;;4976767;28;19906;-66
2023/09/25 17:36:58;;;;;;;;;;;19.70;92.00;;;;;;4976844;28;19916;-67
2023/09/25 17:39:24;;;;;;;;;;;19.60;92.30;;;;;;4977029;28;19910;-68
2023/09/25 17:41:49;;;;;;;;;;;19.50;92.40;;;;;;4977246;28;19912;-67
2023/09/25 17:44:15;;;;;;;;;;;19.40;92.80;;;;;;4977189;28;19928;-66
2023/09/25 17:46:40;;;;;;;;;;;19.40;93.20;;;;;;4976457;28;20309;-66
2023/09/25 17:49:06;;;;;;;;;;;19.30;93.30;;;;;;4976818;28;19906;-67
2023/09/25 17:51:31;;;;;;;;;;;19.20;93.40;;;;;;4975542;28;19906;-66
2023/09/25 17:53:57;;;;;;;;;;;19.20;93.60;;;;;;4976499;28;19907;-66
2023/09/25 17:56:22;;;;;;;;;;;19.10;93.80;;;;;;4976088;28;19906;-67
2023/09/25 17:58:48;;;;;;;;;;;19.10;94.10;;;;;;4977391;28;20029;-67
2023/09/25 18:01:13;;;;;;;;;;;19.00;94.30;;;;;;4976710;28;19910;-67
2023/09/25 18:03:39;;;;;;;;;;;18.90;94.40;;;;;;4976840;28;19906;-68
2023/09/25 18:06:04;;;;;;;;;;;18.90;94.80;;;;;;4976914;28;19910;-66
2023/09/25 18:08:30;;;;;;;;;;;18.80;94.60;;;;;;4975272;28;20362;-66
2023/09/25 18:10:55;;;;;;;;;;;18.90;94.60;;;;;;4976394;28;19906;-66
2023/09/25 18:13:21;;;;;;;;;;;18.90;94.70;;;;;;4976256;28;19977;-64